createdAt,value
2022-08-27T00:02:16.636Z,16.76
2022-08-27T00:04:44.495Z,16.61
2022-08-27T00:07:12.547Z,16.74
2022-08-27T00:09:40.326Z,16.71
2022-08-27T00:12:08.550Z,16.59
2022-08-27T00:14:38.729Z,16.63
2022-08-27T00:17:06.949Z,16.68
2022-08-27T00:19:35.921Z,16.62
2022-08-27T00:22:03.683Z,16.54
2022-08-27T00:24:30.434Z,16.57
2022-08-27T00:26:57.371Z,16.58
2022-08-27T00:29:24.127Z,16.47
2022-08-27T00:31:53.428Z,16.77
2022-08-27T00:34:22.349Z,16.84
2022-08-27T00:36:49.767Z,16.83
2022-08-27T00:39:16.484Z,16.83
2022-08-27T00:41:43.513Z,16.67
2022-08-27T00:44:12.214Z,16.55
2022-08-27T00:46:44.472Z,16.48
2022-08-27T00:49:19.189Z,16.79
2022-08-27T00:51:54.534Z,16.85
2022-08-27T00:54:22.150Z,16.51
2022-08-27T00:56:51.393Z,16.59
2022-08-27T00:59:21.663Z,16.46
2022-08-27T01:02:07.016Z,16.24
2022-08-27T01:04:36.088Z,16.29
2022-08-27T01:07:03.381Z,16.11
2022-08-27T01:09:30.591Z,16.26
2022-08-27T01:11:59.169Z,16.32
2022-08-27T01:14:27.332Z,16.29
2022-08-27T01:16:57.312Z,16.29
2022-08-27T01:19:34.514Z,16.59
2022-08-27T01:22:23.320Z,16.39
2022-08-27T01:24:54.097Z,16.24
2022-08-27T01:27:24.880Z,16.31
2022-08-27T01:29:51.714Z,16.42
2022-08-27T01:32:23.902Z,16.39
2022-08-27T01:34:51.576Z,16.46
2022-08-27T01:37:23.735Z,16.37
2022-08-27T01:39:52.014Z,16.27
2022-08-27T01:42:34.347Z,16.18
2022-08-27T01:45:06.184Z,16.28
2022-08-27T01:47:34.493Z,16.28
2022-08-27T01:50:04.107Z,16.30
2022-08-27T01:52:31.533Z,16.09
2022-08-27T01:54:59.295Z,16.09
2022-08-27T01:57:26.524Z,16.07
2022-08-27T01:59:54.697Z,16.14
2022-08-27T02:02:22.801Z,16.12
2022-08-27T02:04:51.041Z,16.56
2022-08-27T02:07:18.511Z,16.66
2022-08-27T02:09:45.462Z,16.40
2022-08-27T02:12:12.159Z,16.44
2022-08-27T02:14:38.901Z,16.64
2022-08-27T02:17:05.675Z,16.47
2022-08-27T02:19:32.458Z,16.29
2022-08-27T02:22:00.566Z,16.48
2022-08-27T02:24:28.598Z,16.62
2022-08-27T02:26:55.592Z,16.44
2022-08-27T02:29:23.206Z,16.67
2022-08-27T02:31:50.831Z,16.81
2022-08-27T02:34:18.721Z,16.76
2022-08-27T02:36:45.958Z,16.74
2022-08-27T02:39:12.868Z,16.73
2022-08-27T02:41:39.552Z,16.85
2022-08-27T02:44:10.155Z,16.82
2022-08-27T02:46:38.906Z,16.71
2022-08-27T02:49:06.546Z,16.67
2022-08-27T02:51:33.466Z,16.61
2022-08-27T02:54:02.375Z,16.77
2022-08-27T02:56:30.082Z,16.75
2022-08-27T02:58:56.793Z,16.68
2022-08-27T03:01:23.527Z,16.74
2022-08-27T03:03:50.363Z,16.56
2022-08-27T03:06:17.101Z,16.45
2022-08-27T03:08:52.560Z,16.71
2022-08-27T03:11:23.183Z,16.46
2022-08-27T03:13:50.157Z,16.54
2022-08-27T03:16:17.092Z,16.44
2022-08-27T03:18:43.867Z,16.42
2022-08-27T03:21:20.287Z,16.43
2022-08-27T03:23:47.592Z,16.16
2022-08-27T03:26:14.735Z,16.29
2022-08-27T03:28:41.563Z,15.92
2022-08-27T03:31:13.734Z,16.11
2022-08-27T03:33:41.220Z,16.03
2022-08-27T03:36:08.861Z,15.80
2022-08-27T03:38:36.137Z,15.94
2022-08-27T03:41:04.246Z,16.26
2022-08-27T03:43:31.348Z,16.09
2022-08-27T03:46:01.314Z,16.20
2022-08-27T03:48:30.691Z,16.13
2022-08-27T03:50:57.893Z,16.11
2022-08-27T03:53:24.927Z,16.11
2022-08-27T03:55:51.613Z,16.19
2022-08-27T03:58:18.392Z,16.30
2022-08-27T04:00:45.415Z,16.44
2022-08-27T04:03:14.231Z,16.41
2022-08-27T04:05:42.183Z,16.11
2022-08-27T04:08:12.925Z,15.75
2022-08-27T04:10:41.189Z,15.77
2022-08-27T04:13:08.000Z,15.80
2022-08-27T04:15:34.707Z,15.68
2022-08-27T04:18:05.084Z,15.79
2022-08-27T04:20:35.590Z,15.67
2022-08-27T04:23:03.139Z,15.63
2022-08-27T04:25:29.889Z,15.64
2022-08-27T04:27:56.624Z,15.78
2022-08-27T04:30:23.516Z,16.05
2022-08-27T04:32:50.782Z,16.09
2022-08-27T04:35:17.846Z,16.19
2022-08-27T04:37:44.706Z,16.12
2022-08-27T04:40:12.698Z,16.13
2022-08-27T04:42:39.562Z,16.00
2022-08-27T04:45:06.723Z,16.00
2022-08-27T04:47:33.449Z,16.05
2022-08-27T04:50:00.214Z,16.07
2022-08-27T04:52:28.438Z,15.94
2022-08-27T04:54:55.551Z,16.03
2022-08-27T04:57:22.264Z,16.15
2022-08-27T04:59:50.860Z,16.04
2022-08-27T05:02:17.678Z,16.05
2022-08-27T05:04:44.455Z,16.03
2022-08-27T05:07:11.319Z,16.01
2022-08-27T05:09:38.919Z,16.17
2022-08-27T05:12:05.922Z,15.96
2022-08-27T05:14:32.853Z,16.02
2022-08-27T05:17:00.191Z,15.83
2022-08-27T05:19:27.405Z,16.03
2022-08-27T05:21:54.292Z,16.04
2022-08-27T05:24:22.124Z,16.17
2022-08-27T05:26:49.287Z,16.03
2022-08-27T05:29:16.706Z,16.23
2022-08-27T05:31:44.258Z,16.29
2022-08-27T05:34:18.659Z,15.90
2022-08-27T05:36:53.424Z,16.31
2022-08-27T05:39:20.282Z,16.06
2022-08-27T05:41:47.042Z,16.08
2022-08-27T05:47:02.901Z,16.38
2022-08-27T05:49:29.580Z,16.31
2022-08-27T05:51:56.308Z,16.14
2022-08-27T05:54:23.767Z,16.06
2022-08-27T05:56:50.631Z,16.19
2022-08-27T05:59:36.819Z,16.44
2022-08-27T06:02:06.322Z,16.52
2022-08-27T06:04:33.891Z,16.62
2022-08-27T06:07:00.937Z,16.50
2022-08-27T06:09:31.713Z,16.68
2022-08-27T06:12:02.190Z,16.42
2022-08-27T06:14:30.026Z,16.36
2022-08-27T06:16:58.731Z,16.50
2022-08-27T06:19:25.596Z,16.57
2022-08-27T06:22:00.237Z,16.56
2022-08-27T06:24:28.971Z,16.29
2022-08-27T06:26:56.400Z,16.46
2022-08-27T06:29:24.759Z,16.44
2022-08-27T06:31:53.100Z,16.69
2022-08-27T06:34:22.987Z,16.34
2022-08-27T06:36:49.871Z,16.78
2022-08-27T06:39:26.043Z,16.57
2022-08-27T06:41:53.165Z,16.66
2022-08-27T06:44:21.110Z,16.72
2022-08-27T06:46:47.915Z,16.41
2022-08-27T06:49:14.663Z,16.61
2022-08-27T06:51:45.820Z,16.57
2022-08-27T06:54:14.194Z,16.41
2022-08-27T06:56:42.506Z,16.72
2022-08-27T06:59:12.365Z,16.28
2022-08-27T07:01:43.444Z,16.23
2022-08-27T07:04:14.307Z,16.33
2022-08-27T07:06:41.872Z,15.88
2022-08-27T07:09:09.767Z,15.94
2022-08-27T07:11:36.905Z,16.29
2022-08-27T07:14:04.419Z,15.93
2022-08-27T07:16:33.772Z,15.84
2022-08-27T07:19:04.049Z,16.13
2022-08-27T07:21:32.687Z,15.81
2022-08-27T07:24:04.848Z,16.17
2022-08-27T07:26:34.927Z,16.25
2022-08-27T07:29:02.601Z,16.05
2022-08-27T07:31:29.578Z,15.39
2022-08-27T07:33:56.450Z,15.78
2022-08-27T07:36:24.069Z,16.16
2022-08-27T07:38:59.201Z,15.92
2022-08-27T07:41:31.196Z,16.13
2022-08-27T07:44:21.116Z,15.82
2022-08-27T07:46:55.706Z,15.90
2022-08-27T07:49:23.831Z,15.89
2022-08-27T07:51:51.383Z,15.82
2022-08-27T07:54:18.658Z,16.06
2022-08-27T07:56:55.339Z,16.02
2022-08-27T07:59:24.977Z,15.98
2022-08-27T08:01:53.461Z,16.21
2022-08-27T08:04:20.898Z,16.19
2022-08-27T08:06:47.843Z,15.95
2022-08-27T08:09:14.673Z,15.83
2022-08-27T08:11:41.759Z,16.00
2022-08-27T08:14:08.593Z,16.02
2022-08-27T08:16:35.380Z,16.23
2022-08-27T08:19:02.248Z,15.92
2022-08-27T08:21:29.671Z,16.00
2022-08-27T08:23:56.744Z,16.33
2022-08-27T08:26:24.836Z,16.15
2022-08-27T08:28:52.674Z,16.22
2022-08-27T08:31:20.298Z,16.29
2022-08-27T08:33:50.442Z,16.08
2022-08-27T08:36:18.427Z,15.82
2022-08-27T08:38:46.690Z,15.65
2022-08-27T08:41:43.868Z,16.50
2022-08-27T08:44:15.386Z,16.31
2022-08-27T08:47:12.447Z,16.93
2022-08-27T08:50:04.637Z,17.20
2022-08-27T08:52:34.726Z,17.45
2022-08-27T08:55:18.765Z,17.51
2022-08-27T08:58:21.733Z,17.71
2022-08-27T09:00:57.812Z,16.98
2022-08-27T09:03:26.779Z,17.22
2022-08-27T09:06:01.177Z,16.76
2022-08-27T09:08:40.524Z,17.59
2022-08-27T09:11:20.478Z,17.51
2022-08-27T09:13:54.836Z,17.29
2022-08-27T09:16:23.417Z,17.41
2022-08-27T09:18:52.627Z,17.47
2022-08-27T09:21:45.997Z,17.99
2022-08-27T09:24:17.027Z,18.50
2022-08-27T09:26:45.043Z,17.27
2022-08-27T09:29:21.956Z,17.67
2022-08-27T09:32:06.191Z,18.44
2022-08-27T09:34:40.455Z,17.74
2022-08-27T09:37:18.714Z,17.46
2022-08-27T09:40:23.790Z,17.01
2022-08-27T09:42:54.297Z,17.97
2022-08-27T09:45:24.965Z,17.84
2022-08-27T09:47:55.092Z,17.60
2022-08-27T09:50:24.805Z,17.73
2022-08-27T09:52:59.182Z,18.00
2022-08-27T09:55:29.785Z,18.08
2022-08-27T09:57:57.223Z,17.54
2022-08-27T10:00:39.637Z,18.11
2022-08-27T10:03:09.431Z,18.12
2022-08-27T10:05:43.892Z,18.08
2022-08-27T10:08:25.248Z,18.20
2022-08-27T10:11:02.985Z,18.38
2022-08-27T10:13:33.497Z,18.57
2022-08-27T10:16:06.125Z,18.59
2022-08-27T10:19:10.026Z,18.79
2022-08-27T10:22:12.245Z,19.05
2022-08-27T10:25:03.867Z,18.90
2022-08-27T10:27:37.178Z,18.30
2022-08-27T10:30:17.256Z,18.95
2022-08-27T10:33:23.712Z,19.00
2022-08-27T10:36:20.289Z,19.21
2022-08-27T10:39:01.378Z,19.09
2022-08-27T10:41:38.399Z,19.03
2022-08-27T10:44:19.638Z,19.06
2022-08-27T10:47:00.695Z,19.13
2022-08-27T10:50:04.975Z,19.24
2022-08-27T10:52:51.662Z,19.08
2022-08-27T10:55:30.476Z,19.40
2022-08-27T10:58:18.693Z,19.39
2022-08-27T11:01:07.157Z,18.99
2022-08-27T11:03:48.053Z,19.08
2022-08-27T11:06:21.695Z,19.22
2022-08-27T11:08:57.940Z,19.00
2022-08-27T11:12:14.627Z,18.99
2022-08-27T11:15:14.681Z,19.05
2022-08-27T11:17:44.895Z,18.85
2022-08-27T11:20:18.922Z,18.97
2022-08-27T11:22:51.543Z,18.70
2022-08-27T11:26:03.622Z,18.90
2022-08-27T11:28:37.580Z,18.84
2022-08-27T11:31:15.315Z,18.70
2022-08-27T11:33:57.479Z,18.66
2022-08-27T11:36:54.178Z,19.25
2022-08-27T11:39:51.541Z,19.31
2022-08-27T11:42:36.185Z,19.69
2022-08-27T11:45:29.890Z,19.42
2022-08-27T11:48:02.936Z,19.97
2022-08-27T11:50:31.095Z,20.52
2022-08-27T11:53:05.952Z,20.48
2022-08-27T11:55:39.080Z,20.32
2022-08-27T11:58:18.146Z,20.76
2022-08-27T12:00:46.909Z,20.71
2022-08-27T12:03:19.875Z,20.28
2022-08-27T12:05:47.715Z,21.00
2022-08-27T12:08:26.347Z,21.51
2022-08-27T12:11:17.359Z,21.39
2022-08-27T12:14:08.830Z,21.24
2022-08-27T12:17:04.074Z,21.23
2022-08-27T12:20:01.824Z,20.94
2022-08-27T12:23:01.878Z,20.82
2022-08-27T12:25:28.801Z,20.49
2022-08-27T12:28:07.935Z,20.75
2022-08-27T12:30:36.148Z,20.72
2022-08-27T12:33:29.967Z,20.18
2022-08-27T12:36:05.714Z,20.40
2022-08-27T12:38:32.595Z,20.36
2022-08-27T12:41:09.276Z,20.39
2022-08-27T12:43:43.997Z,20.62
2022-08-27T12:46:18.542Z,20.89
2022-08-27T12:48:52.034Z,20.73
2022-08-27T12:51:22.398Z,20.86
2022-08-27T12:53:52.650Z,20.79
2022-08-27T12:56:32.472Z,20.97
2022-08-27T12:59:17.845Z,20.95
2022-08-27T13:02:24.741Z,20.88
2022-08-27T13:04:51.875Z,20.38
2022-08-27T13:07:33.043Z,20.45
2022-08-27T13:10:31.883Z,20.70
2022-08-27T13:13:11.557Z,20.73
2022-08-27T13:15:51.228Z,20.46
2022-08-27T13:18:19.046Z,20.51
2022-08-27T13:20:53.302Z,20.65
2022-08-27T13:23:24.121Z,21.04
2022-08-27T13:26:11.420Z,20.26
2022-08-27T13:28:41.387Z,20.36
2022-08-27T13:31:10.402Z,20.75
2022-08-27T13:33:39.855Z,20.38
2022-08-27T13:36:09.430Z,20.73
2022-08-27T13:38:50.148Z,20.85
2022-08-27T13:41:36.747Z,20.62
2022-08-27T13:44:10.650Z,20.70
2022-08-27T13:46:49.628Z,20.57
2022-08-27T13:49:24.368Z,20.32
2022-08-27T13:52:16.707Z,20.20
2022-08-27T13:54:49.419Z,20.04
2022-08-27T13:57:31.364Z,20.40
2022-08-27T14:00:24.235Z,20.73
2022-08-27T14:02:56.267Z,20.60
2022-08-27T14:05:23.341Z,20.46
2022-08-27T14:07:54.855Z,20.15
2022-08-27T14:10:38.144Z,20.76
2022-08-27T14:13:06.573Z,20.92
2022-08-27T14:15:43.714Z,20.70
2022-08-27T14:18:37.171Z,20.41
2022-08-27T14:21:09.480Z,20.93
2022-08-27T14:23:36.160Z,20.22
2022-08-27T14:26:03.455Z,20.03
2022-08-27T14:28:31.769Z,20.12
2022-08-27T14:30:58.719Z,20.21
2022-08-27T14:33:25.875Z,19.63
2022-08-27T14:35:52.647Z,19.54
2022-08-27T14:38:22.804Z,20.07
2022-08-27T14:40:52.289Z,20.24
2022-08-27T14:43:21.064Z,20.25
2022-08-27T14:45:51.713Z,20.06
2022-08-27T14:48:28.757Z,20.41
2022-08-27T14:50:56.843Z,20.54
2022-08-27T14:53:24.274Z,20.49
2022-08-27T14:55:51.995Z,20.15
2022-08-27T14:58:19.832Z,20.49
2022-08-27T15:00:46.945Z,20.16
2022-08-27T15:03:13.773Z,20.16
2022-08-27T15:05:40.614Z,20.06
2022-08-27T15:08:13.324Z,19.88
2022-08-27T15:10:40.400Z,19.30
2022-08-27T15:13:07.299Z,19.69
2022-08-27T15:15:34.193Z,19.31
2022-08-27T15:18:01.007Z,19.63
2022-08-27T15:20:27.971Z,20.22
2022-08-27T15:22:54.739Z,20.19
2022-08-27T15:25:22.667Z,19.79
2022-08-27T15:27:49.883Z,20.27
2022-08-27T15:30:18.395Z,20.06
2022-08-27T15:32:49.324Z,19.87
2022-08-27T15:35:25.401Z,19.79
2022-08-27T15:37:53.841Z,20.02
2022-08-27T15:40:20.850Z,19.59
2022-08-27T15:42:53.671Z,19.69
2022-08-27T15:45:20.670Z,19.36
2022-08-27T15:47:52.398Z,19.58
2022-08-27T15:50:19.327Z,19.81
2022-08-27T15:52:48.863Z,20.03
2022-08-27T15:55:22.705Z,20.18
2022-08-27T15:57:50.070Z,19.91
2022-08-27T16:00:17.890Z,19.63
2022-08-27T16:02:49.411Z,20.06
2022-08-27T16:05:16.882Z,20.02
2022-08-27T16:07:44.798Z,19.98
2022-08-27T16:10:12.628Z,19.97
2022-08-27T16:12:39.488Z,20.06
2022-08-27T16:15:07.579Z,20.28
2022-08-27T16:17:34.907Z,20.04
2022-08-27T16:20:02.050Z,20.07
2022-08-27T16:22:29.108Z,20.07
2022-08-27T16:24:55.952Z,20.31
2022-08-27T16:27:22.747Z,20.60
2022-08-27T16:29:49.503Z,20.60
2022-08-27T16:32:18.892Z,20.16
2022-08-27T16:34:53.276Z,20.27
2022-08-27T16:37:23.532Z,20.05
2022-08-27T16:39:50.325Z,19.99
2022-08-27T16:42:17.254Z,20.38
2022-08-27T16:44:44.046Z,19.94
2022-08-27T16:47:10.855Z,20.00
2022-08-27T16:49:56.463Z,20.13
2022-08-27T16:52:23.666Z,20.23
2022-08-27T16:54:51.708Z,20.13
2022-08-27T16:57:18.523Z,19.76
2022-08-27T16:59:45.807Z,20.06
2022-08-27T17:02:25.523Z,19.67
2022-08-27T17:05:12.349Z,19.35
2022-08-27T17:07:44.140Z,19.64
2022-08-27T17:10:16.005Z,20.20
2022-08-27T17:12:43.223Z,19.62
2022-08-27T17:15:10.124Z,19.36
2022-08-27T17:17:38.963Z,19.31
2022-08-27T17:20:06.990Z,19.61
2022-08-27T17:22:34.923Z,19.50
2022-08-27T17:25:01.807Z,19.70
2022-08-27T17:27:28.519Z,19.43
2022-08-27T17:29:55.349Z,19.35
2022-08-27T17:32:22.271Z,19.52
2022-08-27T17:34:49.013Z,19.67
2022-08-27T17:37:15.790Z,19.65
2022-08-27T17:39:45.522Z,19.32
2022-08-27T17:42:12.386Z,19.31
2022-08-27T17:44:39.458Z,19.05
2022-08-27T17:47:08.317Z,19.12
2022-08-27T17:49:36.269Z,19.41
2022-08-27T17:52:07.392Z,19.44
2022-08-27T17:54:40.114Z,19.07
2022-08-27T17:57:27.515Z,19.26
2022-08-27T17:59:55.558Z,19.16
2022-08-27T18:02:29.679Z,19.20
2022-08-27T18:04:56.879Z,19.44
2022-08-27T18:07:23.990Z,19.51
2022-08-27T18:09:51.777Z,19.51
2022-08-27T18:12:23.765Z,19.31
2022-08-27T18:15:05.469Z,19.21
2022-08-27T18:17:33.007Z,19.00
2022-08-27T18:19:59.878Z,19.10
2022-08-27T18:22:26.815Z,18.93
2022-08-27T18:24:54.197Z,18.77
2022-08-27T18:27:27.250Z,18.62
2022-08-27T18:29:56.459Z,18.73
2022-08-27T18:32:24.191Z,18.47
2022-08-27T18:34:51.886Z,18.24
2022-08-27T18:37:18.579Z,18.11
2022-08-27T18:39:45.360Z,17.98
2022-08-27T18:42:12.935Z,18.21
2022-08-27T18:44:43.155Z,18.34
2022-08-27T18:47:09.975Z,18.06
2022-08-27T18:49:36.666Z,18.20
2022-08-27T18:52:04.461Z,17.97
2022-08-27T18:54:31.765Z,17.98
2022-08-27T18:56:58.485Z,17.77
2022-08-27T18:59:25.857Z,17.96
2022-08-27T19:01:54.047Z,17.96
2022-08-27T19:04:21.435Z,17.93
2022-08-27T19:06:48.422Z,17.89
2022-08-27T19:09:17.887Z,17.78
2022-08-27T19:11:44.656Z,17.67
2022-08-27T19:14:11.387Z,18.05
2022-08-27T19:16:47.729Z,17.71
2022-08-27T19:19:16.869Z,18.05
2022-08-27T19:21:48.005Z,17.74
2022-08-27T19:24:19.025Z,17.42
2022-08-27T19:26:48.536Z,17.77
2022-08-27T19:29:15.791Z,17.83
2022-08-27T19:31:42.642Z,17.56
2022-08-27T19:34:09.608Z,17.41
2022-08-27T19:36:41.262Z,17.50
2022-08-27T19:39:12.078Z,17.62
2022-08-27T19:41:38.942Z,17.78
2022-08-27T19:44:08.598Z,17.74
2022-08-27T19:46:36.725Z,17.56
2022-08-27T19:49:03.907Z,17.54
2022-08-27T19:51:30.850Z,17.43
2022-08-27T19:53:57.560Z,17.53
2022-08-27T19:56:24.362Z,17.52
2022-08-27T19:58:56.600Z,17.45
2022-08-27T20:01:24.450Z,17.49
2022-08-27T20:03:51.409Z,17.44
2022-08-27T20:06:21.594Z,17.38
2022-08-27T20:08:49.894Z,17.26
2022-08-27T20:11:18.286Z,17.19
2022-08-27T20:13:50.605Z,17.27
2022-08-27T20:16:17.911Z,17.33
2022-08-27T20:18:45.157Z,17.32
2022-08-27T20:21:11.910Z,17.16
2022-08-27T20:23:38.566Z,17.22
2022-08-27T20:26:05.341Z,17.26
2022-08-27T20:28:40.315Z,17.05
2022-08-27T20:31:08.338Z,17.15
2022-08-27T20:33:35.026Z,17.03
2022-08-27T20:36:04.991Z,17.01
2022-08-27T20:38:34.838Z,17.03
2022-08-27T20:41:02.479Z,17.06
2022-08-27T20:43:30.086Z,16.97
2022-08-27T20:45:57.112Z,17.12
2022-08-27T20:48:23.903Z,17.06
2022-08-27T20:50:50.791Z,17.02
2022-08-27T20:53:17.557Z,17.02
2022-08-27T20:55:44.277Z,16.93
2022-08-27T20:58:29.352Z,16.92
2022-08-27T21:00:57.625Z,16.94
2022-08-27T21:03:27.487Z,16.94
2022-08-27T21:05:54.355Z,16.77
2022-08-27T21:08:21.911Z,17.06
2022-08-27T21:10:57.029Z,16.95
2022-08-27T21:13:25.175Z,16.92
2022-08-27T21:15:54.633Z,17.02
2022-08-27T21:18:29.318Z,16.99
2022-08-27T21:20:57.218Z,16.91
2022-08-27T21:23:25.319Z,17.02
2022-08-27T21:25:52.027Z,17.07
2022-08-27T21:28:18.709Z,17.12
2022-08-27T21:30:45.527Z,16.86
2022-08-27T21:33:12.277Z,16.98
2022-08-27T21:35:38.973Z,16.66
2022-08-27T21:38:05.790Z,16.97
2022-08-27T21:40:33.169Z,16.92
2022-08-27T21:43:01.999Z,16.88
2022-08-27T21:45:28.713Z,16.92
2022-08-27T21:47:55.610Z,17.04
2022-08-27T21:50:25.892Z,16.95
2022-08-27T21:52:53.819Z,17.02
2022-08-27T21:55:20.776Z,16.86
2022-08-27T21:57:47.748Z,16.92
2022-08-27T22:00:28.368Z,16.95
2022-08-27T22:02:56.459Z,16.79
2022-08-27T22:05:23.717Z,16.90
2022-08-27T22:07:50.356Z,16.89
2022-08-27T22:10:17.389Z,17.10
2022-08-27T22:12:44.282Z,17.20
2022-08-27T22:15:11.111Z,17.10
2022-08-27T22:17:38.021Z,17.13
2022-08-27T22:20:08.034Z,17.10
2022-08-27T22:22:34.958Z,17.06
2022-08-27T22:25:02.136Z,16.95
2022-08-27T22:27:28.913Z,16.85
2022-08-27T22:29:55.777Z,16.78
2022-08-27T22:32:22.693Z,16.93
2022-08-27T22:34:49.459Z,16.84
2022-08-27T22:37:16.249Z,16.97
2022-08-27T22:39:42.985Z,16.77
2022-08-27T22:42:09.773Z,16.85
2022-08-27T22:44:40.696Z,16.94
2022-08-27T22:47:07.426Z,16.92
2022-08-27T22:49:34.273Z,16.80
2022-08-27T22:52:00.950Z,16.88
2022-08-27T22:54:27.674Z,16.68
2022-08-27T22:56:54.376Z,16.74
2022-08-27T22:59:21.068Z,16.51
2022-08-27T23:01:47.960Z,16.69
2022-08-27T23:04:15.823Z,16.72
2022-08-27T23:06:42.635Z,16.82
2022-08-27T23:09:09.506Z,16.77
2022-08-27T23:11:36.228Z,16.61
2022-08-27T23:14:03.203Z,16.61
2022-08-27T23:16:31.846Z,16.68
2022-08-27T23:18:58.654Z,16.48
2022-08-27T23:21:25.755Z,16.70
2022-08-27T23:23:52.499Z,16.26
2022-08-27T23:26:37.863Z,16.49
2022-08-27T23:29:05.568Z,16.62
2022-08-27T23:31:32.393Z,16.55
2022-08-27T23:33:59.085Z,16.64
2022-08-27T23:36:26.305Z,16.42
2022-08-27T23:38:53.073Z,16.40
2022-08-27T23:41:19.757Z,16.38
2022-08-27T23:43:46.660Z,16.39
2022-08-27T23:46:13.489Z,16.28
2022-08-27T23:48:40.654Z,16.36
2022-08-27T23:51:08.036Z,16.30
2022-08-27T23:53:36.990Z,16.40
2022-08-27T23:56:04.085Z,16.38
2022-08-27T23:58:30.799Z,16.37
